sensor_id;sensor_type;location;lat;lon;timestamp;pressure;altitude;pressure_sealevel;temperature;humidity
29815;BME280;16708;50.426;7.664;2022-11-02T00:02:09;990.05;;;12.25;100.00
29815;BME280;16708;50.426;7.664;2022-11-02T00:07:03;990.04;;;12.20;100.00
29815;BME280;16708;50.426;7.664;2022-11-02T00:11:58;989.97;;;12.08;100.00
29815;BME280;16708;50.426;7.664;2022-11-02T00:16:53;990.04;;;12.12;100.00
29815;BME280;16708;50.426;7.664;2022-11-02T00:21:46;990.02;;;12.01;100.00
29815;BME280;16708;50.426;7.664;2022-11-02T00:26:40;990.16;;;12.14;100.00
29815;BME280;16708;50.426;7.664;2022-11-02T00:31:35;990.03;;;12.12;100.00
29815;BME280;16708;50.426;7.664;2022-11-02T00:36:29;990.06;;;12.03;100.00
29815;BME280;16708;50.426;7.664;2022-11-02T00:41:23;989.99;;;11.93;100.00
29815;BME280;16708;50.426;7.664;2022-11-02T00:46:17;990.13;;;11.92;100.00
29815;BME280;16708;50.426;7.664;2022-11-02T00:51:11;990.02;;;11.92;100.00
29815;BME280;16708;50.426;7.664;2022-11-02T00:56:05;989.97;;;11.94;100.00
29815;BME280;16708;50.426;7.664;2022-11-02T01:01:00;989.90;;;11.99;100.00
29815;BME280;16708;50.426;7.664;2022-11-02T01:05:54;990.04;;;11.89;100.00
29815;BME280;16708;50.426;7.664;2022-11-02T01:10:48;990.06;;;12.04;100.00
29815;BME280;16708;50.426;7.664;2022-11-02T01:15:43;990.01;;;11.99;100.00
29815;BME280;16708;50.426;7.664;2022-11-02T01:20:37;990.02;;;11.92;100.00
29815;BME280;16708;50.426;7.664;2022-11-02T01:25:30;990.10;;;11.92;100.00
29815;BME280;16708;50.426;7.664;2022-11-02T01:30:25;989.94;;;11.92;100.00
29815;BME280;16708;50.426;7.664;2022-11-02T01:35:18;989.95;;;11.91;100.00
29815;BME280;16708;50.426;7.664;2022-11-02T01:40:13;989.88;;;11.96;100.00
29815;BME280;16708;50.426;7.664;2022-11-02T01:45:08;989.78;;;11.93;100.00
29815;BME280;16708;50.426;7.664;2022-11-02T01:50:02;989.84;;;12.08;100.00
29815;BME280;16708;50.426;7.664;2022-11-02T01:54:57;989.71;;;12.08;100.00
29815;BME280;16708;50.426;7.664;2022-11-02T01:59:52;989.79;;;12.11;100.00
29815;BME280;16708;50.426;7.664;2022-11-02T02:04:46;989.84;;;12.21;100.00
29815;BME280;16708;50.426;7.664;2022-11-02T02:09:40;989.96;;;12.28;100.00
29815;BME280;16708;50.426;7.664;2022-11-02T02:14:34;989.79;;;12.29;100.00
29815;BME280;16708;50.426;7.664;2022-11-02T02:19:27;989.84;;;12.17;100.00
29815;BME280;16708;50.426;7.664;2022-11-02T02:29:16;989.87;;;12.29;100.00
29815;BME280;16708;50.426;7.664;2022-11-02T02:39:05;989.98;;;12.26;100.00
29815;BME280;16708;50.426;7.664;2022-11-02T02:44:00;989.95;;;12.11;100.00
29815;BME280;16708;50.426;7.664;2022-11-02T02:48:54;989.99;;;12.24;100.00
29815;BME280;16708;50.426;7.664;2022-11-02T02:53:49;990.05;;;12.17;100.00
29815;BME280;16708;50.426;7.664;2022-11-02T03:08:31;990.08;;;12.35;100.00
29815;BME280;16708;50.426;7.664;2022-11-02T03:13:26;989.95;;;12.45;100.00
29815;BME280;16708;50.426;7.664;2022-11-02T03:18:20;989.89;;;12.33;100.00
29815;BME280;16708;50.426;7.664;2022-11-02T03:23:15;989.99;;;12.27;100.00
29815;BME280;16708;50.426;7.664;2022-11-02T03:28:08;989.95;;;12.32;100.00
29815;BME280;16708;50.426;7.664;2022-11-02T03:33:03;990.07;;;12.22;100.00
29815;BME280;16708;50.426;7.664;2022-11-02T03:37:57;990.04;;;12.09;100.00
29815;BME280;16708;50.426;7.664;2022-11-02T03:42:52;990.13;;;12.16;100.00
29815;BME280;16708;50.426;7.664;2022-11-02T03:47:48;990.24;;;12.26;100.00
29815;BME280;16708;50.426;7.664;2022-11-02T03:52:40;990.31;;;12.27;100.00
29815;BME280;16708;50.426;7.664;2022-11-02T03:57:33;990.30;;;12.23;100.00
29815;BME280;16708;50.426;7.664;2022-11-02T04:02:28;990.40;;;12.24;100.00
29815;BME280;16708;50.426;7.664;2022-11-02T04:07:22;990.59;;;12.31;100.00
29815;BME280;16708;50.426;7.664;2022-11-02T04:12:17;990.42;;;12.21;100.00
29815;BME280;16708;50.426;7.664;2022-11-02T04:17:11;990.52;;;12.08;100.00
29815;BME280;16708;50.426;7.664;2022-11-02T04:22:05;990.51;;;12.10;100.00
29815;BME280;16708;50.426;7.664;2022-11-02T04:27:00;990.65;;;12.05;100.00
29815;BME280;16708;50.426;7.664;2022-11-02T04:31:55;990.64;;;11.95;100.00
29815;BME280;16708;50.426;7.664;2022-11-02T04:36:46;990.58;;;11.88;100.00
29815;BME280;16708;50.426;7.664;2022-11-02T04:41:41;990.58;;;11.67;100.00
29815;BME280;16708;50.426;7.664;2022-11-02T04:46:36;990.70;;;11.70;100.00
29815;BME280;16708;50.426;7.664;2022-11-02T04:51:30;990.67;;;11.74;100.00
29815;BME280;16708;50.426;7.664;2022-11-02T04:56:23;990.77;;;11.66;100.00
29815;BME280;16708;50.426;7.664;2022-11-02T05:01:17;991.00;;;11.85;100.00
29815;BME280;16708;50.426;7.664;2022-11-02T05:06:12;990.90;;;11.98;100.00
29815;BME280;16708;50.426;7.664;2022-11-02T05:11:06;991.02;;;12.00;100.00
29815;BME280;16708;50.426;7.664;2022-11-02T05:16:03;991.03;;;12.00;100.00
29815;BME280;16708;50.426;7.664;2022-11-02T05:20:55;990.92;;;12.04;100.00
29815;BME280;16708;50.426;7.664;2022-11-02T05:25:49;991.05;;;11.92;100.00
29815;BME280;16708;50.426;7.664;2022-11-02T05:30:44;991.15;;;11.97;100.00
29815;BME280;16708;50.426;7.664;2022-11-02T05:35:39;991.19;;;11.98;100.00
29815;BME280;16708;50.426;7.664;2022-11-02T05:40:33;991.23;;;12.05;100.00
29815;BME280;16708;50.426;7.664;2022-11-02T05:45:26;991.30;;;12.01;100.00
29815;BME280;16708;50.426;7.664;2022-11-02T05:50:20;991.38;;;11.98;100.00
29815;BME280;16708;50.426;7.664;2022-11-02T05:55:15;991.35;;;11.86;100.00
29815;BME280;16708;50.426;7.664;2022-11-02T06:00:07;991.46;;;11.70;100.00
29815;BME280;16708;50.426;7.664;2022-11-02T06:05:02;991.42;;;11.55;100.00
29815;BME280;16708;50.426;7.664;2022-11-02T06:09:55;991.57;;;11.48;100.00
29815;BME280;16708;50.426;7.664;2022-11-02T06:14:50;991.59;;;11.41;100.00
29815;BME280;16708;50.426;7.664;2022-11-02T06:19:44;991.58;;;11.41;100.00
29815;BME280;16708;50.426;7.664;2022-11-02T06:24:39;991.65;;;11.31;100.00
29815;BME280;16708;50.426;7.664;2022-11-02T06:29:33;991.65;;;11.27;100.00
29815;BME280;16708;50.426;7.664;2022-11-02T06:34:28;991.70;;;11.20;100.00
29815;BME280;16708;50.426;7.664;2022-11-02T06:39:22;991.80;;;11.14;100.00
29815;BME280;16708;50.426;7.664;2022-11-02T06:44:16;991.85;;;11.18;100.00
29815;BME280;16708;50.426;7.664;2022-11-02T06:49:10;991.94;;;11.12;100.00
29815;BME280;16708;50.426;7.664;2022-11-02T06:54:05;991.99;;;11.18;100.00
29815;BME280;16708;50.426;7.664;2022-11-02T06:58:59;992.11;;;11.18;100.00
29815;BME280;16708;50.426;7.664;2022-11-02T07:03:54;992.17;;;11.23;100.00
29815;BME280;16708;50.426;7.664;2022-11-02T07:08:48;992.29;;;11.09;100.00
29815;BME280;16708;50.426;7.664;2022-11-02T07:13:42;992.33;;;11.18;100.00
29815;BME280;16708;50.426;7.664;2022-11-02T07:18:37;992.36;;;11.20;100.00
29815;BME280;16708;50.426;7.664;2022-11-02T07:23:32;992.52;;;11.19;100.00
29815;BME280;16708;50.426;7.664;2022-11-02T07:28:26;992.57;;;11.20;100.00
29815;BME280;16708;50.426;7.664;2022-11-02T07:33:20;992.65;;;11.45;100.00
29815;BME280;16708;50.426;7.664;2022-11-02T07:38:15;992.81;;;11.52;100.00
29815;BME280;16708;50.426;7.664;2022-11-02T07:43:10;992.82;;;11.59;100.00
29815;BME280;16708;50.426;7.664;2022-11-02T07:48:05;992.80;;;11.78;100.00
29815;BME280;16708;50.426;7.664;2022-11-02T07:52:59;992.84;;;11.88;100.00
29815;BME280;16708;50.426;7.664;2022-11-02T07:57:54;992.92;;;12.07;100.00
29815;BME280;16708;50.426;7.664;2022-11-02T08:02:48;992.92;;;11.93;100.00
29815;BME280;16708;50.426;7.664;2022-11-02T08:07:42;992.98;;;12.05;100.00
29815;BME280;16708;50.426;7.664;2022-11-02T08:12:37;993.00;;;12.17;100.00
29815;BME280;16708;50.426;7.664;2022-11-02T08:17:31;993.01;;;12.35;100.00
29815;BME280;16708;50.426;7.664;2022-11-02T08:22:26;992.99;;;12.58;100.00
29815;BME280;16708;50.426;7.664;2022-11-02T08:27:20;993.08;;;12.53;100.00
29815;BME280;16708;50.426;7.664;2022-11-02T08:32:15;993.31;;;12.61;100.00
29815;BME280;16708;50.426;7.664;2022-11-02T08:37:10;993.11;;;13.08;100.00
29815;BME280;16708;50.426;7.664;2022-11-02T08:42:04;993.26;;;12.83;100.00
29815;BME280;16708;50.426;7.664;2022-11-02T08:47:00;993.21;;;13.94;100.00
29815;BME280;16708;50.426;7.664;2022-11-02T08:51:56;993.15;;;15.28;98.92
29815;BME280;16708;50.426;7.664;2022-11-02T08:56:48;993.29;;;16.45;89.09
29815;BME280;16708;50.426;7.664;2022-11-02T09:01:44;993.33;;;17.07;81.06
29815;BME280;16708;50.426;7.664;2022-11-02T09:06:39;993.32;;;16.41;81.92
29815;BME280;16708;50.426;7.664;2022-11-02T09:11:34;993.41;;;16.53;83.53
29815;BME280;16708;50.426;7.664;2022-11-02T09:16:29;993.40;;;14.50;100.00
29815;BME280;16708;50.426;7.664;2022-11-02T09:21:23;993.49;;;14.78;100.00
29815;BME280;16708;50.426;7.664;2022-11-02T09:26:17;993.52;;;14.45;100.00
29815;BME280;16708;50.426;7.664;2022-11-02T09:31:10;993.58;;;13.55;100.00
29815;BME280;16708;50.426;7.664;2022-11-02T09:36:04;993.54;;;13.82;100.00
29815;BME280;16708;50.426;7.664;2022-11-02T09:40:58;993.83;;;13.84;100.00
29815;BME280;16708;50.426;7.664;2022-11-02T09:45:53;993.85;;;16.88;82.47
29815;BME280;16708;50.426;7.664;2022-11-02T09:50:49;993.76;;;17.65;71.78
29815;BME280;16708;50.426;7.664;2022-11-02T09:55:45;993.77;;;17.50;71.08
29815;BME280;16708;50.426;7.664;2022-11-02T10:05:37;993.95;;;16.44;71.94
29815;BME280;16708;50.426;7.664;2022-11-02T10:10:31;993.64;;;17.72;63.03
29815;BME280;16708;50.426;7.664;2022-11-02T10:15:26;993.88;;;19.22;53.58
29815;BME280;16708;50.426;7.664;2022-11-02T10:20:22;993.96;;;19.46;49.89
29815;BME280;16708;50.426;7.664;2022-11-02T10:25:17;993.76;;;17.81;55.16
29815;BME280;16708;50.426;7.664;2022-11-02T10:30:12;993.68;;;17.95;54.73
29815;BME280;16708;50.426;7.664;2022-11-02T10:35:06;993.96;;;19.30;49.95
29815;BME280;16708;50.426;7.664;2022-11-02T10:54:46;993.95;;;18.09;52.65
29815;BME280;16708;50.426;7.664;2022-11-02T11:09:30;993.84;;;20.03;46.17
29815;BME280;16708;50.426;7.664;2022-11-02T11:29:07;993.98;;;20.34;44.25
29815;BME280;16708;50.426;7.664;2022-11-02T11:34:01;994.07;;;17.89;53.98
29815;BME280;16708;50.426;7.664;2022-11-02T11:38:56;993.98;;;22.08;40.33
29815;BME280;16708;50.426;7.664;2022-11-02T11:43:51;993.88;;;20.82;42.27
29815;BME280;16708;50.426;7.664;2022-11-02T11:48:45;993.82;;;21.50;40.78
29815;BME280;16708;50.426;7.664;2022-11-02T12:08:25;994.08;;;20.78;38.87
29815;BME280;16708;50.426;7.664;2022-11-02T12:52:35;993.49;;;21.22;41.37
29815;BME280;16708;50.426;7.664;2022-11-02T12:57:30;993.50;;;22.71;37.66
29815;BME280;16708;50.426;7.664;2022-11-02T13:02:25;993.31;;;17.36;51.19
29815;BME280;16708;50.426;7.664;2022-11-02T13:07:17;993.37;;;18.26;49.82
29815;BME280;16708;50.426;7.664;2022-11-02T13:12:11;993.37;;;22.46;38.34
29815;BME280;16708;50.426;7.664;2022-11-02T13:17:06;993.17;;;22.95;36.24
29815;BME280;16708;50.426;7.664;2022-11-02T13:22:02;993.18;;;21.35;37.77
29815;BME280;16708;50.426;7.664;2022-11-02T13:26:56;993.20;;;22.38;35.80
29815;BME280;16708;50.426;7.664;2022-11-02T13:31:51;993.19;;;21.53;37.22
29815;BME280;16708;50.426;7.664;2022-11-02T13:36:45;993.18;;;22.95;34.83
29815;BME280;16708;50.426;7.664;2022-11-02T13:46:33;993.25;;;19.84;40.88
29815;BME280;16708;50.426;7.664;2022-11-02T13:51:28;993.14;;;20.46;39.21
29815;BME280;16708;50.426;7.664;2022-11-02T13:56:22;993.22;;;21.47;37.77
29815;BME280;16708;50.426;7.664;2022-11-02T14:01:18;993.25;;;20.54;38.33
29815;BME280;16708;50.426;7.664;2022-11-02T14:06:12;993.31;;;20.27;38.47
29815;BME280;16708;50.426;7.664;2022-11-02T14:25:47;993.14;;;18.94;41.18
29815;BME280;16708;50.426;7.664;2022-11-02T14:35:36;993.19;;;19.03;41.84
29815;BME280;16708;50.426;7.664;2022-11-02T14:45:23;993.14;;;17.12;49.18
29815;BME280;16708;50.426;7.664;2022-11-02T14:50:18;993.15;;;16.66;48.92
29815;BME280;16708;50.426;7.664;2022-11-02T14:55:12;993.06;;;16.73;49.24
29815;BME280;16708;50.426;7.664;2022-11-02T15:00:06;993.01;;;15.61;51.43
29815;BME280;16708;50.426;7.664;2022-11-02T15:05:01;992.93;;;15.16;54.40
29815;BME280;16708;50.426;7.664;2022-11-02T15:09:55;993.05;;;14.99;55.15
29815;BME280;16708;50.426;7.664;2022-11-02T15:24:36;992.94;;;14.54;61.71
29815;BME280;16708;50.426;7.664;2022-11-02T15:29:30;993.04;;;14.57;61.21
29815;BME280;16708;50.426;7.664;2022-11-02T15:34:24;992.94;;;14.43;62.83
29815;BME280;16708;50.426;7.664;2022-11-02T15:39:18;992.86;;;13.95;66.55
29815;BME280;16708;50.426;7.664;2022-11-02T15:53:58;992.83;;;13.59;71.90
29815;BME280;16708;50.426;7.664;2022-11-02T15:58:53;992.74;;;13.31;75.43
29815;BME280;16708;50.426;7.664;2022-11-02T16:03:47;992.76;;;13.12;77.59
29815;BME280;16708;50.426;7.664;2022-11-02T16:13:34;992.61;;;12.71;79.36
29815;BME280;16708;50.426;7.664;2022-11-02T16:23:20;992.55;;;12.51;84.13
29815;BME280;16708;50.426;7.664;2022-11-02T16:28:15;992.58;;;12.31;87.29
29815;BME280;16708;50.426;7.664;2022-11-02T16:33:09;992.58;;;12.34;84.47
29815;BME280;16708;50.426;7.664;2022-11-02T16:38:04;992.58;;;12.14;87.86
29815;BME280;16708;50.426;7.664;2022-11-02T16:42:58;992.57;;;12.13;85.11
29815;BME280;16708;50.426;7.664;2022-11-02T16:47:52;992.67;;;12.24;85.78
29815;BME280;16708;50.426;7.664;2022-11-02T16:52:47;992.54;;;12.22;87.03
29815;BME280;16708;50.426;7.664;2022-11-02T16:57:42;992.50;;;11.60;93.51
29815;BME280;16708;50.426;7.664;2022-11-02T17:02:39;992.52;;;11.28;98.91
29815;BME280;16708;50.426;7.664;2022-11-02T17:07:31;992.65;;;11.19;100.00
29815;BME280;16708;50.426;7.664;2022-11-02T17:12:28;992.71;;;10.84;100.00
29815;BME280;16708;50.426;7.664;2022-11-02T17:17:19;992.60;;;10.98;100.00
29815;BME280;16708;50.426;7.664;2022-11-02T17:27:07;992.62;;;11.13;100.00
29815;BME280;16708;50.426;7.664;2022-11-02T17:32:02;992.60;;;11.20;100.00
29815;BME280;16708;50.426;7.664;2022-11-02T17:36:56;992.62;;;11.10;100.00
29815;BME280;16708;50.426;7.664;2022-11-02T17:46:45;992.50;;;11.12;100.00
29815;BME280;16708;50.426;7.664;2022-11-02T17:51:39;992.50;;;11.19;100.00
29815;BME280;16708;50.426;7.664;2022-11-02T17:56:33;992.39;;;11.06;100.00
29815;BME280;16708;50.426;7.664;2022-11-02T18:01:28;992.55;;;10.81;100.00
29815;BME280;16708;50.426;7.664;2022-11-02T18:06:22;992.49;;;10.92;100.00
29815;BME280;16708;50.426;7.664;2022-11-02T18:11:17;992.46;;;10.84;100.00
29815;BME280;16708;50.426;7.664;2022-11-02T18:16:11;992.45;;;10.88;100.00
29815;BME280;16708;50.426;7.664;2022-11-02T18:21:06;992.43;;;11.07;100.00
29815;BME280;16708;50.426;7.664;2022-11-02T18:26:00;992.59;;;10.80;100.00
29815;BME280;16708;50.426;7.664;2022-11-02T18:30:55;992.51;;;10.75;100.00
29815;BME280;16708;50.426;7.664;2022-11-02T18:35:49;992.43;;;10.96;100.00
29815;BME280;16708;50.426;7.664;2022-11-02T18:40:43;992.42;;;10.97;100.00
29815;BME280;16708;50.426;7.664;2022-11-02T18:45:38;992.20;;;10.90;100.00
29815;BME280;16708;50.426;7.664;2022-11-02T18:50:32;992.26;;;10.79;100.00
29815;BME280;16708;50.426;7.664;2022-11-02T18:55:27;992.10;;;10.60;100.00
29815;BME280;16708;50.426;7.664;2022-11-02T19:00:21;992.12;;;10.72;100.00
29815;BME280;16708;50.426;7.664;2022-11-02T19:05:15;991.91;;;10.69;100.00
29815;BME280;16708;50.426;7.664;2022-11-02T19:10:10;991.81;;;10.64;100.00
29815;BME280;16708;50.426;7.664;2022-11-02T19:15:03;991.78;;;10.69;100.00
29815;BME280;16708;50.426;7.664;2022-11-02T19:19:57;991.72;;;10.66;100.00
29815;BME280;16708;50.426;7.664;2022-11-02T19:24:51;991.78;;;10.71;100.00
29815;BME280;16708;50.426;7.664;2022-11-02T19:29:46;991.78;;;10.78;100.00
29815;BME280;16708;50.426;7.664;2022-11-02T19:34:40;991.72;;;10.81;100.00
29815;BME280;16708;50.426;7.664;2022-11-02T19:39:35;991.67;;;10.66;100.00
29815;BME280;16708;50.426;7.664;2022-11-02T19:44:28;991.62;;;10.39;100.00
29815;BME280;16708;50.426;7.664;2022-11-02T19:49:22;991.54;;;10.37;100.00
29815;BME280;16708;50.426;7.664;2022-11-02T19:54:17;991.42;;;10.35;100.00
29815;BME280;16708;50.426;7.664;2022-11-02T19:59:11;991.51;;;10.69;100.00
29815;BME280;16708;50.426;7.664;2022-11-02T20:04:05;991.46;;;10.53;100.00
29815;BME280;16708;50.426;7.664;2022-11-02T20:08:57;991.43;;;10.45;100.00
29815;BME280;16708;50.426;7.664;2022-11-02T20:13:51;991.47;;;10.46;100.00
29815;BME280;16708;50.426;7.664;2022-11-02T20:18:46;991.40;;;10.40;100.00
29815;BME280;16708;50.426;7.664;2022-11-02T20:23:40;991.35;;;10.35;100.00
29815;BME280;16708;50.426;7.664;2022-11-02T20:28:34;991.34;;;10.52;100.00
29815;BME280;16708;50.426;7.664;2022-11-02T20:33:29;991.19;;;10.27;100.00
29815;BME280;16708;50.426;7.664;2022-11-02T20:38:23;991.32;;;10.29;100.00
29815;BME280;16708;50.426;7.664;2022-11-02T20:43:18;991.21;;;10.28;100.00
29815;BME280;16708;50.426;7.664;2022-11-02T20:48:11;991.15;;;10.33;100.00
29815;BME280;16708;50.426;7.664;2022-11-02T20:53:06;991.10;;;10.33;100.00
29815;BME280;16708;50.426;7.664;2022-11-02T20:57:59;991.03;;;10.59;100.00
29815;BME280;16708;50.426;7.664;2022-11-02T21:02:53;991.10;;;10.49;100.00
29815;BME280;16708;50.426;7.664;2022-11-02T21:07:46;991.05;;;10.49;100.00
29815;BME280;16708;50.426;7.664;2022-11-02T21:12:41;991.12;;;10.50;100.00
29815;BME280;16708;50.426;7.664;2022-11-02T21:17:35;991.02;;;10.49;100.00
29815;BME280;16708;50.426;7.664;2022-11-02T21:22:30;990.89;;;10.55;100.00
29815;BME280;16708;50.426;7.664;2022-11-02T21:27:24;990.80;;;10.40;100.00
29815;BME280;16708;50.426;7.664;2022-11-02T21:32:19;990.71;;;10.28;100.00
29815;BME280;16708;50.426;7.664;2022-11-02T21:37:13;990.73;;;10.37;100.00
29815;BME280;16708;50.426;7.664;2022-11-02T21:42:07;990.70;;;10.33;100.00
29815;BME280;16708;50.426;7.664;2022-11-02T21:47:02;990.66;;;10.36;100.00
29815;BME280;16708;50.426;7.664;2022-11-02T21:51:56;990.59;;;10.46;100.00
29815;BME280;16708;50.426;7.664;2022-11-02T21:56:50;990.58;;;10.36;100.00
29815;BME280;16708;50.426;7.664;2022-11-02T22:01:45;990.53;;;10.35;100.00
29815;BME280;16708;50.426;7.664;2022-11-02T22:06:40;990.45;;;10.47;100.00
29815;BME280;16708;50.426;7.664;2022-11-02T22:11:34;990.38;;;10.29;100.00
29815;BME280;16708;50.426;7.664;2022-11-02T22:16:29;990.44;;;10.25;100.00
29815;BME280;16708;50.426;7.664;2022-11-02T22:21:24;990.41;;;10.35;100.00
29815;BME280;16708;50.426;7.664;2022-11-02T22:26:19;990.33;;;10.41;100.00
29815;BME280;16708;50.426;7.664;2022-11-02T22:31:13;990.37;;;10.51;100.00
29815;BME280;16708;50.426;7.664;2022-11-02T22:36:07;990.40;;;10.42;100.00
29815;BME280;16708;50.426;7.664;2022-11-02T22:41:02;990.24;;;10.39;100.00
29815;BME280;16708;50.426;7.664;2022-11-02T22:46:00;990.31;;;10.46;100.00
29815;BME280;16708;50.426;7.664;2022-11-02T22:50:51;990.09;;;10.62;100.00
29815;BME280;16708;50.426;7.664;2022-11-02T22:55:46;990.10;;;10.73;100.00
29815;BME280;16708;50.426;7.664;2022-11-02T23:00:40;990.04;;;10.65;100.00
29815;BME280;16708;50.426;7.664;2022-11-02T23:05:35;990.10;;;10.75;100.00
29815;BME280;16708;50.426;7.664;2022-11-02T23:10:29;990.12;;;10.72;100.00
29815;BME280;16708;50.426;7.664;2022-11-02T23:15:24;990.13;;;10.69;100.00
29815;BME280;16708;50.426;7.664;2022-11-02T23:20:19;989.99;;;10.72;100.00
29815;BME280;16708;50.426;7.664;2022-11-02T23:25:13;990.09;;;10.74;100.00
29815;BME280;16708;50.426;7.664;2022-11-02T23:30:08;990.04;;;10.56;100.00
29815;BME280;16708;50.426;7.664;2022-11-02T23:35:02;989.96;;;10.67;100.00
29815;BME280;16708;50.426;7.664;2022-11-02T23:39:57;989.79;;;10.66;100.00
29815;BME280;16708;50.426;7.664;2022-11-02T23:44:51;989.86;;;10.78;100.00
29815;BME280;16708;50.426;7.664;2022-11-02T23:49:46;989.68;;;10.53;100.00
29815;BME280;16708;50.426;7.664;2022-11-02T23:54:41;989.56;;;10.58;100.00
29815;BME280;16708;50.426;7.664;2022-11-02T23:59:34;989.58;;;10.43;100.00
